Airfield :
LOGIN :

Register | Disclaimer

   EN    FR    IT 

 










Legend :    VFR   Marginal VFR   IFR   Intensive IFR   Very Intensive IFR
Visi :
Ceiling :
>= 8 km
>= 3000ft
5 to 8 km
1000 to 3000 ft
1500m to 5 km
500 to 1000 ft
800 to 1500m
200 to 500 ft
< 800m
< 200 ft
Symbols :   Thunderstorms  Fog  Heavy snow  Heavy precipitations  Wind > 20 kt
SIGMETs :     Misc.  Thunderstorms  Icing  Turbulence  Mountain Waves  Volcanic Ashes







- Airport Elevation : 82 ft
- IATA code : AAR


EKAH - Aarhus Tirstrup

CURRENT METAR :
  • 191150Z AUTO 26014KT 230V300 9999NDV FEW049/// 20/07 Q1017

EXPIRED METARs :
  • 191120Z AUTO 27016KT 9999NDV SCT049/// 20/07 Q1016
  • 191050Z AUTO 27016G27KT 9999NDV FEW049/// 19/07 Q1016
  • 191020Z AUTO 27016G27KT 9999NDV BKN040/// 18/08 Q1016
  • 190920Z AUTO 27015G25KT 240V300 9999NDV FEW032/// SCT038/// 19/10 Q1015

TAF TAF EKAH
Valid from the 19 at 12:00 until the 20 at 12:00 UTC


191053Z 1912/2012 27015KT 9999 BKN030
TEMPO 1912/1916 27015G28KT
BECMG 1920/1923 25005KT
BECMG 2007/2009 20012KT
TEMPO 2010/2012 21015G28KT
No reported NOTAMs for that airfield.



MET'MAP, your aeronautical weather chart ! - Copyright ORBIFLY December 2007 - Disclaimer

ORBIFLY MET'MAP TEAM :

Programming & Development : Alexandra Zaïnal
Concept & Development : Baudouin d'Aumeries
Co-Development & Prog : Marc-Olivier Méhu
Technical & hardware support : Manuel Goepfert

Contact : metmap@orbifly.com




SOURCES & CREDITS :

   NOAA